Time;durP1;ratioP1;P1;durP2;ratioP2;P2;SDS_P1;SDS_P2;PMS_P1;PMS_P2;Temp;Humidity;BMP_temperature;BMP_pressure;BME280_temperature;BME280_humidity;BME280_pressure;Samples;Min_cycle;Max_cycle;Signal;HPM_P1;HPM_P2
2022/01/31 00:01:50;;;;;;;11.63;3.73;;;4.80;99.90;;;;;;5034800;28;20196;-76
2022/01/31 00:04:16;;;;;;;11.40;3.97;;;4.80;99.90;;;;;;5033580;28;20187;-76
2022/01/31 00:06:47;;;;;;;15.17;3.63;;;4.80;99.90;;;;;;5034989;28;20175;-76
2022/01/31 00:09:15;;;;;;;11.50;3.73;;;4.90;99.90;;;;;;5035331;28;20160;-76
2022/01/31 00:11:43;;;;;;;14.03;3.83;;;4.90;99.90;;;;;;5033380;28;20721;-76
2022/01/31 00:14:20;;;;;;;11.70;3.40;;;4.80;99.90;;;;;;5034676;28;20180;-76
2022/01/31 00:16:46;;;;;;;14.30;3.40;;;4.80;99.90;;;;;;5032335;28;20652;-76
2022/01/31 00:19:11;;;;;;;11.90;3.43;;;4.80;99.90;;;;;;5035103;28;20204;-76
2022/01/31 00:21:37;;;;;;;10.43;3.67;;;4.80;99.90;;;;;;5033146;28;20189;-76
2022/01/31 00:24:02;;;;;;;12.60;3.40;;;4.80;99.90;;;;;;5034453;28;20168;-76
2022/01/31 00:26:28;;;;;;;13.80;3.60;;;4.80;99.90;;;;;;5034429;28;20181;-76
2022/01/31 00:28:53;;;;;;;16.97;3.37;;;4.80;99.90;;;;;;5034330;28;20191;-76
2022/01/31 00:31:19;;;;;;;11.77;3.17;;;4.80;99.90;;;;;;5034735;28;20176;-77
2022/01/31 00:33:44;;;;;;;11.87;3.67;;;4.80;99.90;;;;;;5033030;28;20242;-76
2022/01/31 00:36:10;;;;;;;10.87;2.63;;;4.80;99.90;;;;;;5034112;28;20570;-76
2022/01/31 00:38:36;;;;;;;13.13;3.30;;;4.80;99.90;;;;;;5034202;28;20589;-76
2022/01/31 00:41:01;;;;;;;14.43;3.60;;;4.80;99.90;;;;;;5034601;28;20208;-76
2022/01/31 00:43:27;;;;;;;10.03;3.10;;;4.80;99.90;;;;;;5033909;28;20208;-76
2022/01/31 00:46:01;;;;;;;9.90;3.17;;;4.80;99.90;;;;;;5034034;28;20241;-76
2022/01/31 00:48:30;;;;;;;7.60;2.93;;;4.80;99.90;;;;;;5034347;28;20159;-76
2022/01/31 00:50:55;;;;;;;9.67;3.33;;;4.80;99.90;;;;;;5033983;28;20374;-76
2022/01/31 00:53:21;;;;;;;14.13;3.43;;;4.70;99.90;;;;;;5033836;28;20306;-77
2022/01/31 00:55:46;;;;;;;8.77;2.73;;;4.80;99.90;;;;;;5032490;28;20214;-76
2022/01/31 00:58:12;;;;;;;12.13;2.93;;;4.70;99.90;;;;;;5033732;28;20179;-76
2022/01/31 01:00:37;;;;;;;14.03;3.43;;;4.70;99.90;;;;;;5032545;28;20613;-76
2022/01/31 01:03:04;;;;;;;14.90;3.30;;;4.70;99.90;;;;;;5034230;28;20669;-76
2022/01/31 01:05:31;;;;;;;11.10;3.20;;;4.80;99.90;;;;;;5033847;28;20176;-76
2022/01/31 01:07:57;;;;;;;10.60;2.57;;;4.80;99.90;;;;;;5032428;28;20581;-77
2022/01/31 01:10:23;;;;;;;13.03;2.70;;;4.80;99.90;;;;;;5033831;28;20211;-77
2022/01/31 01:12:48;;;;;;;11.80;3.40;;;4.80;99.90;;;;;;5032303;28;20196;-76
2022/01/31 01:15:15;;;;;;;13.27;3.97;;;4.80;99.90;;;;;;5033456;28;20255;-76
2022/01/31 01:17:41;;;;;;;9.70;2.97;;;4.80;99.90;;;;;;5032235;28;20188;-76
2022/01/31 01:20:09;;;;;;;11.67;2.73;;;4.80;99.90;;;;;;5033458;28;20626;-76
2022/01/31 01:22:35;;;;;;;10.70;2.63;;;4.80;99.90;;;;;;5032084;28;20245;-76
2022/01/31 01:25:03;;;;;;;11.40;2.93;;;4.90;99.90;;;;;;5033637;28;20176;-76
2022/01/31 01:27:29;;;;;;;14.33;3.10;;;4.90;99.90;;;;;;5033165;28;20172;-76
2022/01/31 01:29:56;;;;;;;12.60;3.17;;;4.90;99.90;;;;;;5032023;28;20263;-76
2022/01/31 01:32:23;;;;;;;11.80;2.73;;;4.90;99.90;;;;;;5033213;28;20196;-76
2022/01/31 01:34:48;;;;;;;12.57;2.73;;;4.90;99.90;;;;;;5033280;28;20199;-77
2022/01/31 01:37:14;;;;;;;10.40;3.00;;;4.90;99.90;;;;;;5033171;28;20234;-76
2022/01/31 01:39:41;;;;;;;19.50;3.23;;;5.00;99.90;;;;;;5031885;28;20180;-76
2022/01/31 01:42:07;;;;;;;11.60;3.60;;;5.00;99.90;;;;;;5033157;28;20224;-76
2022/01/31 01:44:50;;;;;;;10.37;2.80;;;4.90;99.90;;;;;;5031895;28;20173;-76
2022/01/31 01:47:21;;;;;;;12.87;2.47;;;5.00;99.90;;;;;;5033036;28;20176;-76
2022/01/31 01:49:47;;;;;;;12.70;3.27;;;5.00;99.90;;;;;;5033406;28;20157;-76
2022/01/31 01:52:13;;;;;;;14.53;3.40;;;5.00;99.90;;;;;;5032965;28;20697;-76
2022/01/31 01:54:39;;;;;;;13.60;3.40;;;5.00;99.90;;;;;;5032979;28;20180;-76
2022/01/31 01:57:05;;;;;;;14.33;2.83;;;5.00;99.90;;;;;;5033122;28;20208;-76
2022/01/31 01:59:34;;;;;;;12.93;2.87;;;5.00;99.90;;;;;;5031686;28;20180;-75
2022/01/31 02:02:01;;;;;;;12.57;3.57;;;5.00;99.90;;;;;;5033120;28;20188;-76
2022/01/31 02:04:27;;;;;;;11.40;3.23;;;5.00;99.90;;;;;;5031667;28;20199;-76
2022/01/31 02:06:53;;;;;;;13.43;3.27;;;5.10;99.90;;;;;;5033012;28;20184;-76
2022/01/31 02:09:22;;;;;;;7.50;2.60;;;5.10;99.90;;;;;;5032874;28;20187;-75
2022/01/31 02:11:48;;;;;;;14.00;3.30;;;5.10;99.90;;;;;;5031583;28;20198;-76
2022/01/31 02:14:14;;;;;;;11.53;2.83;;;5.10;99.90;;;;;;5032812;28;20210;-76
2022/01/31 02:16:39;;;;;;;10.43;2.77;;;5.00;99.90;;;;;;5032751;28;20211;-76
2022/01/31 02:19:06;;;;;;;14.63;3.20;;;5.00;99.90;;;;;;5032691;28;20553;-78
2022/01/31 02:21:32;;;;;;;15.20;3.10;;;5.00;99.90;;;;;;5031434;28;20267;-76
2022/01/31 02:23:58;;;;;;;13.13;2.93;;;4.90;99.90;;;;;;5032704;28;20207;-75
2022/01/31 02:26:24;;;;;;;17.47;4.10;;;4.90;99.90;;;;;;5032281;28;20689;-76
2022/01/31 02:28:50;;;;;;;10.07;3.13;;;4.90;99.90;;;;;;5031427;28;20721;-76
2022/01/31 02:31:16;;;;;;;9.23;3.00;;;4.90;99.90;;;;;;5031444;28;20187;-76
2022/01/31 02:33:42;;;;;;;8.50;2.67;;;4.80;99.90;;;;;;5031350;28;20580;-76
2022/01/31 02:36:08;;;;;;;12.00;3.03;;;4.80;99.90;;;;;;5032362;28;20211;-76
2022/01/31 02:38:34;;;;;;;11.60;3.00;;;4.80;99.90;;;;;;5031472;28;20183;-76
2022/01/31 02:41:00;;;;;;;12.40;3.13;;;4.80;99.90;;;;;;5036286;28;20546;-77
2022/01/31 02:43:29;;;;;;;13.37;2.90;;;4.70;99.90;;;;;;5036423;28;20199;-76
2022/01/31 02:45:55;;;;;;;10.80;3.13;;;4.70;99.90;;;;;;5036372;28;20226;-76
2022/01/31 02:48:23;;;;;;;15.27;3.07;;;4.70;99.90;;;;;;5036859;28;20172;-75
2022/01/31 02:50:50;;;;;;;8.40;2.97;;;4.70;99.90;;;;;;5036532;28;20172;-76
2022/01/31 02:53:27;;;;;;;13.00;3.00;;;4.70;99.90;;;;;;5034658;28;20291;-76
2022/01/31 02:55:58;;;;;;;15.70;3.30;;;4.70;99.90;;;;;;5035661;28;20195;-76
2022/01/31 02:58:25;;;;;;;9.83;3.20;;;4.70;99.90;;;;;;5036211;28;20157;-76
2022/01/31 03:00:53;;;;;;;12.47;2.87;;;4.70;99.90;;;;;;5034876;28;20187;-76
2022/01/31 03:03:19;;;;;;;10.27;2.87;;;4.60;99.90;;;;;;5036150;28;20542;-76
2022/01/31 03:05:44;;;;;;;9.73;2.43;;;4.60;99.90;;;;;;5035745;28;20234;-77
2022/01/31 03:08:10;;;;;;;9.23;2.70;;;4.60;99.90;;;;;;5035095;28;20176;-76
2022/01/31 03:10:36;;;;;;;9.63;2.27;;;4.60;99.90;;;;;;5034668;28;20187;-77
2022/01/31 03:13:01;;;;;;;10.23;2.60;;;4.50;99.90;;;;;;5035771;28;20215;-76
2022/01/31 03:15:27;;;;;;;7.23;2.37;;;4.50;99.90;;;;;;5035778;28;20187;-76
2022/01/31 03:17:53;;;;;;;11.00;2.60;;;4.60;99.90;;;;;;5034575;28;20172;-76
2022/01/31 03:20:22;;;;;;;11.60;2.60;;;4.50;99.90;;;;;;5036030;28;20293;-76
2022/01/31 03:22:48;;;;;;;8.30;2.33;;;4.50;99.90;;;;;;5034368;28;20224;-77
2022/01/31 03:25:14;;;;;;;11.47;2.23;;;4.50;99.90;;;;;;5035926;28;20196;-76
2022/01/31 03:27:40;;;;;;;6.77;2.20;;;4.50;99.90;;;;;;5035573;28;20172;-76
2022/01/31 03:30:09;;;;;;;11.77;3.03;;;4.50;99.90;;;;;;5035547;28;20716;-76
2022/01/31 03:32:35;;;;;;;12.27;2.73;;;4.50;99.90;;;;;;5034190;28;20208;-76
2022/01/31 03:35:01;;;;;;;5.57;2.27;;;4.50;99.90;;;;;;5035458;28;20555;-76
2022/01/31 03:37:28;;;;;;;6.53;2.43;;;4.40;99.90;;;;;;5034024;28;20640;-76
2022/01/31 03:39:53;;;;;;;7.00;2.10;;;4.50;99.90;;;;;;5034122;28;20180;-76
2022/01/31 03:42:19;;;;;;;9.13;2.90;;;4.50;99.90;;;;;;5033661;22;20227;-94
2022/01/31 03:44:47;;;;;;;5.87;2.53;;;4.50;99.90;;;;;;4975860;28;20187;-94
2022/01/31 03:47:13;;;;;;;5.73;2.37;;;4.50;99.90;;;;;;4975811;28;20194;-94
2022/01/31 03:49:39;;;;;;;8.80;2.23;;;4.50;99.90;;;;;;4974473;28;20180;-94
2022/01/31 03:52:04;;;;;;;7.43;2.10;;;5.10;99.90;;;;;;4976111;28;20254;-93
2022/01/31 03:54:30;;;;;;;6.23;2.53;;;4.60;99.90;;;;;;4978455;28;20186;-95
2022/01/31 03:56:55;;;;;;;8.07;2.83;;;4.60;99.90;;;;;;4978789;28;20229;-95
2022/01/31 03:59:21;;;;;;;11.33;2.93;;;4.60;99.90;;;;;;4978834;28;20170;-95
2022/01/31 04:01:47;;;;;;;7.53;2.33;;;5.00;99.90;;;;;;4977536;28;20245;-94
2022/01/31 04:04:13;;;;;;;7.13;2.70;;;4.60;99.90;;;;;;4975327;28;20183;-93
2022/01/31 04:06:40;;;;;;;6.83;2.50;;;4.70;99.90;;;;;;4976825;28;20195;-94
2022/01/31 04:09:06;;;;;;;6.70;2.70;;;4.70;99.90;;;;;;4975933;28;20175;-94
2022/01/31 04:11:32;;;;;;;8.30;2.90;;;4.70;99.90;;;;;;4976853;28;20247;-94
2022/01/31 04:13:58;;;;;;;6.73;2.70;;;4.70;99.90;;;;;;4978263;28;20253;-95
2022/01/31 04:16:24;;;;;;;8.33;2.90;;;4.80;99.90;;;;;;4976978;28;20286;-94
2022/01/31 04:18:49;;;;;;;10.13;3.33;;;4.80;99.90;;;;;;4976392;28;20194;-94
2022/01/31 04:21:15;;;;;;;8.83;3.63;;;4.80;99.90;;;;;;4974801;28;20250;-94
2022/01/31 04:23:40;;;;;;;7.40;2.83;;;4.90;99.90;;;;;;4976175;28;20167;-93
2022/01/31 04:26:13;;;;;;;8.23;3.80;;;4.90;99.90;;;;;;4974610;28;20247;-93
2022/01/31 04:28:47;;;;;;;7.13;3.13;;;5.50;99.90;;;;;;4975302;29;20163;-94
2022/01/31 04:33:47;;;;;;;11.50;3.40;;;5.40;99.90;;;;;;4976901;28;20165;-94
2022/01/31 04:36:14;;;;;;;9.67;3.43;;;5.20;99.90;;;;;;4976566;28;20183;-95
2022/01/31 04:38:44;;;;;;;7.93;3.90;;;5.50;99.90;;;;;;4974720;28;20179;-93
2022/01/31 04:41:09;;;;;;;8.97;3.80;;;5.30;99.90;;;;;;4977397;28;20175;-94
2022/01/31 04:43:35;;;;;;;14.63;3.27;;;5.40;99.90;;;;;;4976038;28;20254;-94
2022/01/31 04:46:05;;;;;;;11.17;3.27;;;5.50;99.90;;;;;;4976618;28;20163;-94
2022/01/31 04:48:30;;;;;;;8.53;3.80;;;5.50;99.90;;;;;;4976352;28;20163;-94
2022/01/31 04:50:56;;;;;;;8.97;3.67;;;5.50;99.90;;;;;;4976235;28;20175;-94
2022/01/31 04:53:22;;;;;;;8.43;3.50;;;5.50;99.90;;;;;;4977031;28;20190;-95
2022/01/31 04:55:48;;;;;;;14.73;4.80;;;5.50;99.90;;;;;;4976763;28;20194;-94
2022/01/31 04:58:14;;;;;;;7.57;3.67;;;5.50;99.90;;;;;;4976819;28;20229;-94
2022/01/31 05:00:40;;;;;;;7.00;3.53;;;5.50;99.90;;;;;;4976479;28;20186;-95
2022/01/31 05:03:12;;;;;;;8.70;3.53;;;6.60;99.90;;;;;;4976580;28;20174;-94
2022/01/31 05:05:38;;;;;;;7.67;3.27;;;5.60;99.90;;;;;;4975889;28;20172;-94
2022/01/31 05:08:04;;;;;;;5.57;3.10;;;5.80;99.90;;;;;;4976285;28;20214;-94
2022/01/31 05:10:29;;;;;;;12.03;3.70;;;5.70;99.90;;;;;;4976159;28;20183;-94
2022/01/31 05:12:55;;;;;;;9.33;3.27;;;5.70;99.90;;;;;;4976605;28;20183;-94
2022/01/31 05:15:21;;;;;;;12.50;3.40;;;6.40;99.90;;;;;;4975415;28;20294;-94
2022/01/31 05:17:46;;;;;;;12.87;3.43;;;5.80;99.90;;;;;;4976007;28;20213;-94
2022/01/31 05:20:12;;;;;;;10.53;3.77;;;5.80;99.90;;;;;;4975839;28;20177;-94
2022/01/31 05:22:37;;;;;;;9.27;4.57;;;5.80;99.90;;;;;;4976597;28;20182;-94
2022/01/31 05:25:03;;;;;;;10.00;3.17;;;5.90;99.90;;;;;;4976169;28;20202;-94
2022/01/31 05:27:29;;;;;;;11.97;3.97;;;5.80;99.90;;;;;;4977237;28;20191;-94
2022/01/31 05:29:55;;;;;;;9.23;3.47;;;5.80;99.90;;;;;;4976050;28;20167;-94
2022/01/31 05:32:29;;;;;;;9.30;3.43;;;5.90;99.90;;;;;;4978012;28;20194;-94
2022/01/31 05:34:55;;;;;;;17.00;4.07;;;5.90;99.90;;;;;;4978833;28;20178;-94
2022/01/31 05:37:21;;;;;;;9.13;3.50;;;5.90;99.90;;;;;;4975833;28;20262;-94
2022/01/31 05:39:46;;;;;;;10.30;3.60;;;6.00;99.90;;;;;;4976531;28;20167;-94
2022/01/31 05:42:12;;;;;;;12.50;3.93;;;6.00;99.90;;;;;;4976637;28;20191;-94
2022/01/31 05:44:38;;;;;;;16.60;4.00;;;6.00;99.90;;;;;;4976885;28;20207;-94
2022/01/31 05:47:04;;;;;;;8.57;2.80;;;6.00;99.90;;;;;;4976189;28;20183;-95
2022/01/31 05:49:30;;;;;;;7.77;2.90;;;6.00;99.90;;;;;;4974660;28;20202;-94
2022/01/31 05:52:04;;;;;;;12.73;3.70;;;6.00;99.90;;;;;;4976110;28;20183;-94
2022/01/31 05:54:31;;;;;;;11.73;3.43;;;6.00;99.90;;;;;;4975190;28;20178;-94
2022/01/31 05:56:56;;;;;;;11.07;3.60;;;6.00;99.90;;;;;;4976319;28;20223;-94
2022/01/31 05:59:22;;;;;;;6.50;2.70;;;6.10;99.90;;;;;;4975909;28;20191;-94
2022/01/31 06:01:48;;;;;;;17.13;3.57;;;6.10;99.90;;;;;;4976866;28;20167;-94
2022/01/31 06:04:14;;;;;;;12.50;3.17;;;6.10;99.90;;;;;;4976440;28;20179;-96
2022/01/31 06:06:39;;;;;;;12.40;2.60;;;6.10;99.90;;;;;;4972585;28;20211;-94
2022/01/31 06:09:05;;;;;;;14.37;3.10;;;6.10;99.90;;;;;;4970003;28;20191;-93
2022/01/31 06:11:33;;;;;;;10.73;2.43;;;6.10;99.90;;;;;;4973736;28;20194;-95
2022/01/31 06:14:00;;;;;;;10.23;2.73;;;6.10;99.90;;;;;;4974772;28;20183;-94
2022/01/31 06:16:27;;;;;;;14.00;2.40;;;6.10;99.90;;;;;;4977617;28;20223;-95
2022/01/31 06:18:53;;;;;;;15.07;2.83;;;6.20;99.90;;;;;;4978927;28;20167;-96
2022/01/31 06:21:18;;;;;;;7.73;2.53;;;6.20;99.90;;;;;;4975835;28;20193;-94
2022/01/31 06:23:44;;;;;;;12.30;2.97;;;6.10;99.90;;;;;;4975332;28;20198;-94
2022/01/31 06:26:20;;;;;;;10.43;2.13;;;5.90;99.90;;;;;;4974838;28;20183;-95
2022/01/31 06:28:47;;;;;;;13.70;3.63;;;6.10;99.90;;;;;;4980112;28;20181;-96
2022/01/31 06:31:13;;;;;;;11.40;2.57;;;6.20;99.90;;;;;;4980654;28;20167;-95
2022/01/31 06:33:38;;;;;;;12.47;2.33;;;6.70;99.90;;;;;;4979570;28;20182;-96
2022/01/31 06:36:04;;;;;;;9.63;2.40;;;6.70;99.90;;;;;;4952487;23;20675;-75
2022/01/31 06:38:30;;;;;;;14.77;2.67;;;6.10;99.90;;;;;;4935775;28;20223;-74
2022/01/31 06:40:56;;;;;;;11.47;2.33;;;6.10;99.90;;;;;;4935897;28;20224;-74
2022/01/31 06:43:21;;;;;;;10.90;2.60;;;6.10;99.90;;;;;;4935816;28;20259;-76
2022/01/31 06:45:47;;;;;;;12.93;2.73;;;6.10;99.90;;;;;;4934892;29;20222;-76
2022/01/31 06:48:12;;;;;;;19.67;2.87;;;6.10;99.90;;;;;;4935769;28;20581;-76
2022/01/31 06:50:38;;;;;;;12.30;3.90;;;6.10;99.90;;;;;;4934433;29;20261;-76
2022/01/31 06:53:05;;;;;;;14.93;3.23;;;6.00;99.90;;;;;;4934505;28;20187;-76
2022/01/31 06:55:34;;;;;;;15.97;5.57;;;6.00;99.90;;;;;;4934347;28;20637;-76
2022/01/31 06:58:00;;;;;;;16.67;5.70;;;5.80;99.90;;;;;;4935527;28;20661;-74
2022/01/31 07:00:26;;;;;;;7.97;2.20;;;5.60;99.90;;;;;;4935406;29;20634;-74
2022/01/31 07:02:51;;;;;;;7.50;1.97;;;5.50;99.90;;;;;;4934133;29;20172;-74
2022/01/31 07:05:18;;;;;;;5.43;1.60;;;5.40;99.90;;;;;;4934319;28;20180;-74
2022/01/31 07:07:44;;;;;;;7.20;2.60;;;5.30;99.90;;;;;;4934903;28;20278;-75
2022/01/31 07:10:10;;;;;;;10.70;3.53;;;5.30;99.90;;;;;;4935164;29;20187;-75
2022/01/31 07:12:39;;;;;;;15.13;6.70;;;5.20;99.90;;;;;;4935274;28;20179;-75
2022/01/31 07:15:08;;;;;;;19.27;7.47;;;5.10;99.90;;;;;;4934025;28;20188;-74
2022/01/31 07:17:37;;;;;;;24.57;10.20;;;5.10;99.90;;;;;;4934966;28;20216;-74
2022/01/31 07:20:12;;;;;;;16.33;4.90;;;5.10;99.90;;;;;;4935529;29;20183;-75
2022/01/31 07:22:39;;;;;;;8.90;3.37;;;5.10;99.90;;;;;;4933990;29;20203;-75
2022/01/31 07:25:09;;;;;;;9.67;3.00;;;5.10;99.90;;;;;;4933542;28;20175;-75
2022/01/31 07:27:36;;;;;;;5.57;1.93;;;5.00;99.90;;;;;;4933514;28;20195;-75
2022/01/31 07:30:03;;;;;;;3.50;1.03;;;5.00;99.90;;;;;;4933854;28;20236;-74
2022/01/31 07:32:29;;;;;;;5.57;1.27;;;5.00;99.90;;;;;;4934346;28;20187;-74
2022/01/31 07:34:56;;;;;;;3.60;1.33;;;5.00;99.90;;;;;;4933706;28;20244;-75
2022/01/31 07:37:25;;;;;;;6.63;1.53;;;5.00;99.90;;;;;;4933194;28;20218;-75
2022/01/31 07:39:52;;;;;;;4.50;1.30;;;4.90;99.90;;;;;;4933648;29;20178;-75
2022/01/31 07:42:19;;;;;;;7.67;2.57;;;4.90;99.90;;;;;;4933673;28;20310;-75
2022/01/31 07:44:45;;;;;;;6.93;1.87;;;4.90;99.90;;;;;;4933809;28;20611;-74
2022/01/31 07:47:10;;;;;;;3.93;1.80;;;5.00;99.90;;;;;;4934585;28;20298;-75
2022/01/31 07:49:36;;;;;;;9.57;3.60;;;4.90;99.90;;;;;;4933482;28;20203;-75
2022/01/31 07:52:02;;;;;;;18.13;6.10;;;5.00;99.90;;;;;;4933464;28;20649;-75
2022/01/31 07:54:28;;;;;;;20.80;8.60;;;5.00;99.90;;;;;;4933427;29;20191;-75
2022/01/31 07:56:56;;;;;;;21.47;8.97;;;5.10;99.90;;;;;;4934522;28;20207;-75
2022/01/31 07:59:21;;;;;;;20.20;8.33;;;5.10;99.90;;;;;;4933396;28;20551;-75
2022/01/31 08:01:47;;;;;;;19.90;7.03;;;5.10;99.90;;;;;;4933283;28;20176;-75
2022/01/31 08:04:13;;;;;;;16.30;6.07;;;5.30;99.90;;;;;;4932784;28;20185;-75
2022/01/31 08:06:38;;;;;;;15.90;6.57;;;5.20;99.90;;;;;;4933259;28;20180;-75
2022/01/31 08:09:04;;;;;;;27.20;9.30;;;5.20;99.90;;;;;;4933129;28;20199;-76
2022/01/31 08:11:32;;;;;;;22.67;9.50;;;5.20;99.90;;;;;;4933155;28;20622;-75
2022/01/31 08:14:02;;;;;;;25.93;10.90;;;5.20;99.90;;;;;;4932931;28;20180;-75
2022/01/31 08:16:28;;;;;;;20.97;7.40;;;5.20;99.90;;;;;;4933067;28;20203;-74
2022/01/31 08:18:54;;;;;;;22.10;6.73;;;5.20;99.90;;;;;;4933015;28;20196;-75
2022/01/31 08:21:23;;;;;;;23.33;5.87;;;5.20;99.90;;;;;;4933029;28;20233;-75
2022/01/31 08:23:50;;;;;;;16.70;4.43;;;5.20;99.90;;;;;;4932701;28;20183;-75
2022/01/31 08:26:17;;;;;;;13.03;3.63;;;5.20;99.90;;;;;;4933008;28;20555;-75
2022/01/31 08:28:50;;;;;;;9.07;3.13;;;5.30;99.90;;;;;;4932885;28;20588;-75
2022/01/31 08:31:21;;;;;;;13.33;4.37;;;5.20;99.90;;;;;;4933268;29;20540;-75
2022/01/31 08:34:04;;;;;;;10.50;4.07;;;5.20;99.90;;;;;;4932453;29;20195;-75
2022/01/31 08:36:34;;;;;;;15.53;3.30;;;5.20;99.90;;;;;;4932459;29;20211;-76
2022/01/31 08:39:08;;;;;;;8.17;2.37;;;5.10;99.90;;;;;;4932634;28;20192;-75
2022/01/31 08:41:36;;;;;;;13.23;2.73;;;5.10;99.90;;;;;;4933024;29;20168;-74
2022/01/31 08:44:02;;;;;;;6.57;1.80;;;5.10;99.90;;;;;;4932585;29;20171;-74
2022/01/31 08:46:28;;;;;;;11.13;2.47;;;5.10;99.90;;;;;;4932728;28;20183;-75
2022/01/31 08:48:55;;;;;;;9.63;1.97;;;5.10;99.90;;;;;;4932630;28;20595;-75
2022/01/31 08:51:21;;;;;;;10.50;2.23;;;5.10;99.90;;;;;;4934977;28;20202;-74
2022/01/31 08:53:48;;;;;;;7.47;2.33;;;5.10;99.90;;;;;;4934076;28;20719;-74
2022/01/31 08:56:14;;;;;;;12.83;2.07;;;5.00;99.90;;;;;;4935074;28;20218;-74
2022/01/31 08:58:46;;;;;;;7.57;2.00;;;5.10;99.90;;;;;;4932503;28;20246;-74
2022/01/31 09:01:16;;;;;;;10.57;2.37;;;5.10;99.90;;;;;;4932598;29;20688;-74
2022/01/31 09:03:54;;;;;;;9.63;2.63;;;5.10;99.90;;;;;;4932484;28;20180;-74
2022/01/31 09:06:23;;;;;;;12.67;2.80;;;5.00;99.90;;;;;;4931923;29;20176;-74
2022/01/31 09:08:48;;;;;;;11.27;2.70;;;5.10;99.90;;;;;;4931839;28;20223;-74
2022/01/31 09:11:15;;;;;;;10.43;2.60;;;5.10;99.90;;;;;;4932501;28;20609;-74
2022/01/31 09:13:41;;;;;;;13.73;2.47;;;5.00;99.90;;;;;;4932265;28;20646;-74
2022/01/31 09:16:08;;;;;;;13.60;2.50;;;5.10;99.90;;;;;;4932274;28;20203;-74
2022/01/31 09:18:33;;;;;;;8.17;2.00;;;5.10;99.90;;;;;;4932236;29;20200;-73
2022/01/31 09:21:00;;;;;;;10.87;2.43;;;5.00;99.90;;;;;;4932240;29;20195;-74
2022/01/31 09:23:27;;;;;;;12.37;2.87;;;5.10;99.90;;;;;;4932246;28;20259;-74
2022/01/31 09:25:57;;;;;;;13.07;2.07;;;5.10;99.90;;;;;;4932163;29;20270;-73
2022/01/31 09:28:23;;;;;;;14.13;2.57;;;5.10;99.90;;;;;;4932170;28;20202;-73
2022/01/31 09:30:49;;;;;;;12.40;2.17;;;5.10;99.90;;;;;;4932686;28;20526;-74
2022/01/31 09:33:16;;;;;;;7.80;2.40;;;5.10;99.90;;;;;;4932081;29;20601;-75
2022/01/31 09:35:42;;;;;;;8.77;2.37;;;5.10;99.90;;;;;;4931758;28;20200;-75
2022/01/31 09:38:12;;;;;;;7.57;2.63;;;5.10;99.90;;;;;;4932081;28;20199;-74
2022/01/31 09:40:37;;;;;;;20.70;5.50;;;5.10;99.90;;;;;;4931994;28;20223;-74
2022/01/31 09:51:05;;;;;;;22.80;7.07;;;5.30;99.90;;;;;;4933744;29;20664;-74
2022/01/31 09:53:35;;;;;;;23.70;7.13;;;5.30;99.90;;;;;;4933412;28;20180;-73
2022/01/31 09:56:01;;;;;;;24.07;8.60;;;5.40;99.90;;;;;;4931795;29;20196;-73
2022/01/31 09:58:29;;;;;;;24.73;10.50;;;5.40;99.90;;;;;;4931698;29;20203;-74
2022/01/31 10:01:13;;;;;;;20.00;7.40;;;5.40;99.90;;;;;;4931767;28;20541;-75
2022/01/31 10:03:46;;;;;;;21.20;5.50;;;5.40;99.90;;;;;;4931756;29;20168;-74
2022/01/31 10:06:20;;;;;;;16.43;5.30;;;5.50;99.90;;;;;;4931659;28;20211;-74
2022/01/31 10:08:46;;;;;;;19.20;5.43;;;5.50;99.90;;;;;;4931655;29;20203;-74
2022/01/31 10:11:29;;;;;;;16.77;3.60;;;5.50;99.90;;;;;;4931683;28;20184;-74
2022/01/31 10:16:52;;;;;;;13.17;3.30;;;5.50;99.90;;;;;;4933150;29;20585;-74
2022/01/31 10:19:18;;;;;;;14.77;2.90;;;5.50;99.90;;;;;;4931522;28;20195;-75
2022/01/31 10:22:07;;;;;;;12.97;3.27;;;5.50;99.90;;;;;;4932948;28;20660;-74
2022/01/31 10:24:34;;;;;;;14.97;3.53;;;5.50;99.90;;;;;;4932804;29;20168;-74
2022/01/31 10:27:19;;;;;;;15.47;2.80;;;5.50;99.90;;;;;;4932893;28;20187;-74
2022/01/31 10:29:46;;;;;;;13.57;2.57;;;5.60;99.90;;;;;;4932650;28;20203;-74
2022/01/31 10:32:17;;;;;;;12.50;2.63;;;5.60;99.90;;;;;;4933510;29;20191;-75
2022/01/31 10:34:50;;;;;;;8.40;3.00;;;5.60;99.90;;;;;;4931864;28;20223;-74
2022/01/31 10:37:18;;;;;;;8.10;2.13;;;5.60;99.90;;;;;;4931595;29;20247;-74
2022/01/31 10:45:35;;;;;;;16.10;3.03;;;5.50;99.90;;;;;;4933404;29;20243;-75
2022/01/31 10:53:45;;;;;;;16.43;2.33;;;5.60;99.90;;;;;;4933210;29;20191;-75
2022/01/31 10:56:11;;;;;;;14.70;3.10;;;5.60;99.90;;;;;;4931840;29;20200;-75
2022/01/31 10:59:10;;;;;;;18.30;3.57;;;5.60;99.90;;;;;;4931590;28;20254;-76
2022/01/31 11:01:38;;;;;;;18.83;3.43;;;5.60;99.90;;;;;;4934204;29;20196;-76
2022/01/31 11:04:06;;;;;;;15.37;3.07;;;5.60;99.90;;;;;;4934917;28;20191;-76
2022/01/31 11:06:32;;;;;;;21.00;3.17;;;5.60;99.90;;;;;;4934909;29;20270;-76
2022/01/31 11:09:07;;;;;;;14.30;2.70;;;5.50;99.90;;;;;;4934980;29;20200;-76
2022/01/31 11:11:34;;;;;;;15.63;3.33;;;5.50;99.90;;;;;;4934997;29;20285;-76
2022/01/31 11:14:01;;;;;;;16.97;3.67;;;5.50;99.90;;;;;;4934298;28;20188;-77
2022/01/31 11:16:27;;;;;;;16.53;3.13;;;5.50;99.90;;;;;;4934267;29;20210;-75
2022/01/31 11:18:57;;;;;;;18.47;4.03;;;5.50;99.90;;;;;;4934463;28;20192;-77
2022/01/31 11:21:28;;;;;;;17.97;4.03;;;5.60;99.90;;;;;;4934537;28;20179;-77
2022/01/31 11:24:00;;;;;;;20.03;4.20;;;5.50;99.90;;;;;;4934083;29;20207;-76
2022/01/31 11:26:35;;;;;;;22.77;4.47;;;5.50;99.90;;;;;;4934134;29;20270;-76
2022/01/31 11:29:02;;;;;;;27.27;4.80;;;5.50;99.90;;;;;;4933933;29;20199;-75
2022/01/31 11:31:28;;;;;;;17.80;3.57;;;5.50;99.90;;;;;;4934115;29;20175;-75
2022/01/31 11:33:56;;;;;;;26.30;4.93;;;5.50;99.90;;;;;;4934087;28;20183;-75
2022/01/31 11:36:23;;;;;;;20.80;3.83;;;5.50;99.90;;;;;;4933832;29;20215;-76
2022/01/31 11:38:48;;;;;;;20.77;3.73;;;5.60;99.90;;;;;;4933868;29;20199;-76
2022/01/31 11:41:16;;;;;;;28.93;4.37;;;5.60;99.90;;;;;;4933799;29;20183;-76
2022/01/31 11:43:51;;;;;;;24.43;4.83;;;5.70;99.90;;;;;;4933867;29;20207;-76
2022/01/31 11:46:22;;;;;;;26.07;5.17;;;5.70;99.90;;;;;;4933759;29;20176;-76
2022/01/31 11:48:47;;;;;;;27.00;5.53;;;5.70;99.90;;;;;;4933965;29;20234;-76
2022/01/31 11:51:13;;;;;;;34.20;5.60;;;5.70;99.90;;;;;;4933894;29;20214;-76
2022/01/31 11:53:39;;;;;;;30.47;5.57;;;5.70;99.90;;;;;;4933879;28;20211;-77
2022/01/31 11:56:20;;;;;;;24.47;5.37;;;5.80;99.90;;;;;;4933654;28;20238;-76
2022/01/31 11:58:49;;;;;;;29.60;5.50;;;5.80;99.90;;;;;;4933586;28;20219;-77
2022/01/31 12:01:15;;;;;;;32.63;6.13;;;5.80;99.90;;;;;;4933873;28;20180;-77
2022/01/31 12:03:58;;;;;;;25.03;5.07;;;5.80;99.90;;;;;;4933595;28;20176;-75
2022/01/31 12:06:26;;;;;;;24.93;5.33;;;5.80;99.90;;;;;;4935226;28;20551;-77
2022/01/31 12:08:54;;;;;;;39.60;5.37;;;5.80;99.90;;;;;;4934874;29;20253;-77
2022/01/31 12:11:28;;;;;;;27.93;4.40;;;5.80;99.90;;;;;;4933338;28;20180;-76
2022/01/31 12:13:59;;;;;;;24.27;4.30;;;5.80;99.90;;;;;;4933691;29;20312;-77
2022/01/31 12:16:45;;;;;;;21.20;3.57;;;5.80;99.90;;;;;;4933877;29;20291;-77
2022/01/31 12:22:02;;;;;;;25.80;4.50;;;5.80;99.90;;;;;;4935601;29;20164;-77
2022/01/31 12:24:42;;;;;;;25.77;3.80;;;5.80;99.90;;;;;;4933842;28;20526;-78
2022/01/31 12:27:20;;;;;;;24.50;4.13;;;5.80;99.90;;;;;;4933851;29;20190;-77
2022/01/31 12:29:46;;;;;;;18.10;2.87;;;5.80;99.90;;;;;;4934548;29;20175;-77
2022/01/31 12:32:16;;;;;;;19.27;3.60;;;5.80;99.90;;;;;;4933513;28;20206;-77
2022/01/31 12:34:48;;;;;;;15.43;2.97;;;5.80;99.90;;;;;;4933729;28;20199;-77
2022/01/31 12:37:25;;;;;;;16.10;2.67;;;5.80;99.90;;;;;;4934728;29;20199;-79
2022/01/31 12:40:04;;;;;;;15.27;3.10;;;5.80;99.90;;;;;;4935471;29;20167;-78
2022/01/31 12:45:42;;;;;;;17.57;3.13;;;5.70;99.90;;;;;;4937922;29;20164;-78
2022/01/31 12:48:08;;;;;;;16.27;3.77;;;5.70;99.90;;;;;;4953171;28;20239;-77
2022/01/31 12:50:40;;;;;;;17.23;2.77;;;5.80;99.90;;;;;;4935212;29;20305;-78
2022/01/31 12:53:35;;;;;;;11.00;3.07;;;5.60;99.90;;;;;;4935958;29;20187;-78
2022/01/31 12:56:26;;;;;;;14.37;2.77;;;5.70;99.90;;;;;;4940174;28;20630;-78
2022/01/31 12:59:10;;;;;;;16.03;2.53;;;5.60;99.90;;;;;;4939583;29;20196;-77
2022/01/31 13:01:39;;;;;;;18.30;3.90;;;5.50;99.90;;;;;;4936524;29;20190;-77
2022/01/31 13:04:06;;;;;;;13.03;2.73;;;5.60;99.90;;;;;;4935458;29;20180;-77
2022/01/31 13:06:37;;;;;;;8.67;2.83;;;5.60;99.90;;;;;;4934176;29;20673;-77
2022/01/31 13:09:03;;;;;;;15.60;2.93;;;5.60;99.90;;;;;;4933570;28;20199;-78
2022/01/31 13:11:29;;;;;;;11.23;2.60;;;5.60;99.90;;;;;;4940252;28;20306;-77
2022/01/31 13:14:02;;;;;;;16.43;3.03;;;5.60;99.90;;;;;;4946167;29;20182;-78
2022/01/31 13:16:37;;;;;;;17.67;2.80;;;5.60;99.90;;;;;;4940270;28;20690;-78
2022/01/31 13:19:15;;;;;;;17.80;3.57;;;5.60;99.90;;;;;;4933570;29;20202;-77
2022/01/31 13:21:41;;;;;;;10.77;3.10;;;5.60;99.90;;;;;;4933904;28;20270;-79
2022/01/31 13:24:07;;;;;;;11.73;3.27;;;5.60;99.90;;;;;;4933452;28;20615;-77
2022/01/31 13:26:55;;;;;;;13.20;2.57;;;5.60;99.90;;;;;;4934911;28;20191;-79